Kenseh, Arkansas
Current Conditions -  °F | °C
As of 7:56 PM on Thursday 18 Dec 2014 (Local Time) from KSRC Reporting Station
Haze Haze  
Wind Chill:   Ceiling: 500
Heat Index:   Visibility: 5mi
Dew Point:   Wind: 5mph
Humidity: 93%   Direction: 70°ENE
Pressure: 30.25"   Gusts: NA
Location:  35.2119°N, 91.6651°W
Report Text: KSRC 190156Z AUTO 07004KT 5SM BR OVC005 05/04 A3025 RMK AO2 SLP251 T00500039 TSNO
Loading
Personal Weather Stations






























Interactive Weather Map New forecast layout! Learn more

10-Day Weather Forecast

Advertisements
Track Severe Weather on mobile